Time;durP1;ratioP1;P1;durP2;ratioP2;P2;SDS_P1;SDS_P2;PMS_P1;PMS_P2;Temp;Humidity;BMP_temperature;BMP_pressure;BME280_temperature;BME280_humidity;BME280_pressure;Samples;Min_cycle;Max_cycle;Signal;HPM_P1;HPM_P2
2023/12/14 00:01:59;;;;;;;15.10;10.50;;;6.30;99.90;;;;;;4948763;28;20440;-65
2023/12/14 00:04:25;;;;;;;14.65;10.43;;;6.30;99.90;;;;;;4949517;29;20043;-69
2023/12/14 00:06:50;;;;;;;15.40;10.90;;;6.30;99.90;;;;;;4945941;28;20042;-62
2023/12/14 00:09:16;;;;;;;14.38;10.27;;;6.30;99.90;;;;;;4941892;28;20051;-63
2023/12/14 00:11:42;;;;;;;14.20;10.57;;;6.30;99.90;;;;;;4949871;29;20039;-63
2023/12/14 00:14:07;;;;;;;14.55;9.90;;;6.30;99.90;;;;;;4950307;28;20031;-70
2023/12/14 00:16:33;;;;;;;13.82;10.25;;;6.30;99.90;;;;;;4944046;29;20576;-63
2023/12/14 00:18:58;;;;;;;13.82;9.90;;;6.30;99.90;;;;;;4950432;28;20043;-63
2023/12/14 00:21:24;;;;;;;13.23;9.07;;;6.30;99.90;;;;;;4945894;29;20039;-64
2023/12/14 00:23:49;;;;;;;15.18;10.15;;;6.20;99.90;;;;;;4945506;28;20098;-69
2023/12/14 00:26:17;;;;;;;14.13;9.55;;;6.30;99.90;;;;;;4950606;28;20046;-66
2023/12/14 00:28:42;;;;;;;13.68;9.65;;;6.20;99.90;;;;;;4944834;28;20050;-63
2023/12/14 00:31:08;;;;;;;14.75;9.45;;;6.20;99.90;;;;;;4948378;29;20393;-65
2023/12/14 00:33:33;;;;;;;14.85;10.48;;;6.30;99.90;;;;;;4949892;28;20039;-63
2023/12/14 00:35:59;;;;;;;13.75;9.75;;;6.20;99.90;;;;;;4939591;29;20412;-67
2023/12/14 00:38:25;;;;;;;15.18;9.90;;;6.20;99.90;;;;;;4946449;29;20051;-64
2023/12/14 00:40:50;;;;;;;13.63;9.30;;;6.20;99.90;;;;;;4951853;29;20039;-66
2023/12/14 00:43:16;;;;;;;12.25;8.63;;;6.20;99.90;;;;;;4951763;28;20122;-63
2023/12/14 00:45:41;;;;;;;12.60;9.00;;;6.20;99.90;;;;;;4944512;29;20028;-62
2023/12/14 00:48:07;;;;;;;14.77;9.20;;;6.20;99.90;;;;;;4943136;29;20082;-62
2023/12/14 00:50:33;;;;;;;14.30;9.18;;;6.30;99.90;;;;;;4973474;23;20590;-62
2023/12/14 00:52:58;;;;;;;12.30;9.15;;;6.20;99.90;;;;;;4961975;28;20051;-61
2023/12/14 00:55:24;;;;;;;12.73;9.30;;;6.30;99.90;;;;;;4963779;28;20038;-62
2023/12/14 00:57:50;;;;;;;13.55;9.07;;;6.30;99.90;;;;;;4968983;28;20381;-63
2023/12/14 01:00:16;;;;;;;14.95;9.10;;;6.20;99.90;;;;;;4965854;28;20047;-62
2023/12/14 01:02:41;;;;;;;12.40;8.75;;;6.20;99.90;;;;;;4962864;28;20042;-62
2023/12/14 01:05:07;;;;;;;13.18;8.65;;;6.20;99.90;;;;;;4957128;28;20051;-62
2023/12/14 01:07:33;;;;;;;12.30;8.65;;;6.20;99.90;;;;;;4965764;28;20399;-61
2023/12/14 01:09:58;;;;;;;13.23;8.52;;;6.20;99.90;;;;;;4967480;28;20042;-62
2023/12/14 01:12:24;;;;;;;11.40;7.78;;;6.20;99.90;;;;;;4965528;28;20046;-63
2023/12/14 01:14:49;;;;;;;12.65;7.82;;;6.20;99.90;;;;;;4968394;28;20085;-62
2023/12/14 01:17:15;;;;;;;12.25;8.27;;;6.20;99.90;;;;;;4969900;28;20031;-61
2023/12/14 01:19:41;;;;;;;15.18;8.55;;;6.20;99.90;;;;;;4969653;28;20047;-62
2023/12/14 01:22:07;;;;;;;12.85;8.23;;;6.20;99.90;;;;;;4968122;28;20053;-63
2023/12/14 01:24:32;;;;;;;15.00;7.72;;;6.20;99.90;;;;;;4969484;28;20499;-62
2023/12/14 01:26:58;;;;;;;15.23;8.13;;;6.20;99.90;;;;;;4970468;28;20043;-62
2023/12/14 01:29:24;;;;;;;11.27;7.90;;;6.10;99.90;;;;;;4970369;28;20500;-62
2023/12/14 01:31:49;;;;;;;13.27;8.60;;;6.20;99.90;;;;;;4967055;28;20050;-62
2023/12/14 01:34:15;;;;;;;13.55;8.07;;;6.20;99.90;;;;;;4969117;28;20035;-61
2023/12/14 01:36:41;;;;;;;13.95;8.30;;;6.20;99.90;;;;;;4969055;28;20035;-62
2023/12/14 01:39:07;;;;;;;14.30;8.77;;;6.20;99.90;;;;;;4971655;28;20035;-62
2023/12/14 01:41:32;;;;;;;14.10;8.57;;;6.20;99.90;;;;;;4969441;28;20043;-62
2023/12/14 01:43:58;;;;;;;11.63;8.10;;;6.20;99.90;;;;;;4967920;28;20186;-61
2023/12/14 01:46:24;;;;;;;12.98;8.43;;;6.20;99.90;;;;;;4973137;28;20038;-63
2023/12/14 01:48:50;;;;;;;14.25;8.13;;;6.10;99.90;;;;;;4972868;28;20042;-63
2023/12/14 01:51:15;;;;;;;13.55;8.40;;;6.20;99.90;;;;;;4968161;28;20038;-62
2023/12/14 01:53:41;;;;;;;11.55;7.85;;;6.10;99.90;;;;;;4967656;28;20035;-62
2023/12/14 01:56:07;;;;;;;12.77;9.10;;;6.20;99.90;;;;;;4973688;28;20034;-62
2023/12/14 01:58:33;;;;;;;14.02;8.77;;;6.10;99.90;;;;;;4973835;28;20061;-62
2023/12/14 02:01:07;;;;;;;13.98;8.70;;;6.20;99.90;;;;;;4972037;28;20121;-61
2023/12/14 02:03:32;;;;;;;12.18;8.13;;;6.10;99.90;;;;;;4973616;28;20121;-60
2023/12/14 02:05:58;;;;;;;12.43;8.43;;;6.10;99.90;;;;;;4971716;28;20110;-63
2023/12/14 02:08:28;;;;;;;13.80;8.77;;;6.10;99.90;;;;;;4967422;28;20043;-62
2023/12/14 02:10:54;;;;;;;14.70;7.93;;;6.10;99.90;;;;;;4971951;28;20426;-62
2023/12/14 02:13:19;;;;;;;15.05;8.48;;;6.10;99.90;;;;;;4973259;28;20039;-62
2023/12/14 02:15:45;;;;;;;14.65;9.15;;;6.10;99.90;;;;;;4972858;28;20042;-61
2023/12/14 02:18:11;;;;;;;14.18;8.10;;;6.10;99.90;;;;;;4970198;28;20117;-61
2023/12/14 02:20:36;;;;;;;13.52;8.90;;;6.10;99.90;;;;;;4968144;28;20074;-63
2023/12/14 02:23:02;;;;;;;13.27;8.05;;;6.10;99.90;;;;;;4967486;28;20106;-62
2023/12/14 02:25:27;;;;;;;12.32;8.45;;;6.10;99.90;;;;;;4969276;28;20049;-62
2023/12/14 02:27:53;;;;;;;17.48;8.40;;;6.00;99.90;;;;;;4973135;28;20503;-62
2023/12/14 02:30:19;;;;;;;12.95;8.00;;;6.10;99.90;;;;;;4965462;28;20580;-62
2023/12/14 02:32:44;;;;;;;14.70;8.82;;;6.10;99.90;;;;;;4970948;28;20097;-63
2023/12/14 02:35:10;;;;;;;12.93;8.60;;;6.10;99.90;;;;;;4971795;28;20502;-63
2023/12/14 02:37:40;;;;;;;12.63;8.45;;;6.10;99.90;;;;;;4973387;28;20038;-62
2023/12/14 02:40:07;;;;;;;16.48;8.52;;;6.00;99.90;;;;;;4972996;28;20043;-62
2023/12/14 02:42:33;;;;;;;12.70;8.40;;;6.00;99.90;;;;;;4972147;28;20077;-62
2023/12/14 02:44:59;;;;;;;14.52;7.45;;;6.00;99.90;;;;;;4966585;28;20479;-62
2023/12/14 02:47:24;;;;;;;12.73;8.55;;;6.00;99.90;;;;;;4969331;28;20043;-62
2023/12/14 02:49:50;;;;;;;14.32;8.15;;;6.00;99.90;;;;;;4972819;28;20035;-62
2023/12/14 02:52:15;;;;;;;13.43;7.43;;;6.00;99.90;;;;;;4969763;28;20046;-62
2023/12/14 02:54:41;;;;;;;14.45;7.82;;;6.00;99.90;;;;;;4971848;28;20031;-62
2023/12/14 02:57:07;;;;;;;11.40;7.50;;;6.00;99.90;;;;;;4971997;28;20053;-62
2023/12/14 02:59:32;;;;;;;11.40;7.63;;;6.00;99.90;;;;;;4962460;28;20042;-61
2023/12/14 03:01:58;;;;;;;12.93;7.57;;;6.00;99.90;;;;;;4965472;28;20114;-61
2023/12/14 03:04:24;;;;;;;13.85;7.82;;;6.00;99.90;;;;;;4967104;28;20039;-62
2023/12/14 03:06:49;;;;;;;12.02;7.78;;;5.90;99.90;;;;;;4966372;28;20039;-62
2023/12/14 03:09:15;;;;;;;17.10;8.50;;;6.00;99.90;;;;;;4968736;28;20043;-62
2023/12/14 03:11:41;;;;;;;12.25;7.95;;;6.00;99.90;;;;;;4964235;28;20046;-61
2023/12/14 03:14:06;;;;;;;13.50;7.57;;;5.90;99.90;;;;;;4962480;28;20034;-61
2023/12/14 03:16:32;;;;;;;12.95;7.43;;;5.90;99.90;;;;;;4966058;28;20104;-62
2023/12/14 03:18:57;;;;;;;11.85;7.82;;;5.90;99.90;;;;;;4965437;28;20099;-62
2023/12/14 03:21:23;;;;;;;11.93;7.28;;;5.90;99.90;;;;;;4972175;28;20050;-62
2023/12/14 03:23:50;;;;;;;11.48;7.47;;;5.90;99.90;;;;;;4969030;28;20074;-63
2023/12/14 03:26:16;;;;;;;13.35;7.18;;;5.90;99.90;;;;;;4967584;28;20046;-62
2023/12/14 03:28:41;;;;;;;12.55;7.20;;;5.90;99.90;;;;;;4971874;28;20034;-62
2023/12/14 03:31:12;;;;;;;11.57;7.57;;;5.90;99.90;;;;;;4971554;28;20038;-62
2023/12/14 03:33:39;;;;;;;11.43;7.18;;;5.90;99.90;;;;;;4971691;28;20383;-62
2023/12/14 03:36:05;;;;;;;11.65;7.32;;;5.90;99.90;;;;;;4960859;28;20496;-63
2023/12/14 03:38:31;;;;;;;12.43;7.72;;;5.90;99.90;;;;;;4971816;28;20034;-62
2023/12/14 03:40:57;;;;;;;12.32;7.03;;;5.90;99.90;;;;;;4968420;28;20534;-61
2023/12/14 03:43:23;;;;;;;13.68;7.90;;;5.90;99.90;;;;;;4967206;28;20066;-62
2023/12/14 03:45:48;;;;;;;12.15;8.00;;;5.90;99.90;;;;;;4966349;28;20035;-62
2023/12/14 03:48:14;;;;;;;14.35;7.00;;;5.90;99.90;;;;;;4972000;28;20460;-62
2023/12/14 03:50:40;;;;;;;11.63;7.15;;;5.80;99.90;;;;;;4971750;28;20049;-61
2023/12/14 03:53:05;;;;;;;12.70;7.65;;;5.80;99.90;;;;;;4969512;28;20042;-62
2023/12/14 03:55:31;;;;;;;12.55;7.57;;;5.90;99.90;;;;;;4967471;28;20030;-62
2023/12/14 03:57:56;;;;;;;13.55;8.40;;;5.90;99.90;;;;;;4962108;28;20051;-62
2023/12/14 04:00:22;;;;;;;14.38;7.63;;;5.90;99.90;;;;;;4971738;28;20042;-62
2023/12/14 04:02:47;;;;;;;12.93;7.43;;;5.90;99.90;;;;;;4964718;28;20074;-61
2023/12/14 04:05:13;;;;;;;13.27;7.10;;;5.80;99.90;;;;;;4970416;28;20066;-62
2023/12/14 04:07:40;;;;;;;14.43;7.13;;;5.90;99.90;;;;;;4969082;28;20093;-62
2023/12/14 04:10:13;;;;;;;10.35;6.72;;;5.90;99.90;;;;;;4968923;28;20772;-63
2023/12/14 04:12:39;;;;;;;12.73;6.90;;;5.90;99.90;;;;;;4971168;28;20125;-62
2023/12/14 04:15:06;;;;;;;13.73;7.68;;;5.90;99.90;;;;;;4969895;28;20039;-61
2023/12/14 04:17:32;;;;;;;12.52;7.00;;;5.80;99.90;;;;;;4966929;28;20035;-61
2023/12/14 04:19:58;;;;;;;15.20;7.43;;;5.80;99.90;;;;;;4964966;28;20060;-62
2023/12/14 04:22:24;;;;;;;13.30;7.43;;;5.80;99.90;;;;;;4967405;28;20684;-61
2023/12/14 04:24:50;;;;;;;14.65;7.63;;;5.80;99.90;;;;;;4963668;28;20071;-62
2023/12/14 04:27:16;;;;;;;13.63;7.22;;;5.80;99.90;;;;;;4969621;28;20038;-61
2023/12/14 04:29:41;;;;;;;12.80;7.03;;;5.80;99.90;;;;;;4954528;28;21150;-63
2023/12/14 04:32:08;;;;;;;12.18;7.03;;;5.80;99.90;;;;;;4960225;28;20043;-63
2023/12/14 04:34:33;;;;;;;12.02;6.93;;;5.80;99.90;;;;;;4963532;28;20458;-63
2023/12/14 04:36:59;;;;;;;12.30;6.90;;;5.80;99.90;;;;;;4964902;28;20047;-63
2023/12/14 04:39:25;;;;;;;14.02;7.18;;;5.80;99.90;;;;;;4970737;28;20037;-63
2023/12/14 04:41:52;;;;;;;13.00;7.30;;;5.80;99.90;;;;;;4971253;28;20097;-63
2023/12/14 04:44:21;;;;;;;12.32;7.07;;;5.80;99.90;;;;;;4969965;28;20069;-64
2023/12/14 04:46:50;;;;;;;14.02;6.80;;;5.80;99.90;;;;;;4963356;28;20450;-63
2023/12/14 04:49:16;;;;;;;11.77;7.00;;;5.80;99.90;;;;;;4970163;28;20054;-61
2023/12/14 04:51:42;;;;;;;11.95;7.35;;;5.80;99.90;;;;;;4970582;28;20046;-62
2023/12/14 04:54:08;;;;;;;12.30;7.72;;;5.80;99.90;;;;;;4966507;28;20408;-62
2023/12/14 04:56:34;;;;;;;12.52;7.18;;;5.80;99.90;;;;;;4961832;28;20039;-62
2023/12/14 04:59:00;;;;;;;13.32;7.75;;;5.80;99.90;;;;;;4966857;28;20558;-64
2023/12/14 05:01:28;;;;;;;12.85;7.45;;;5.70;99.90;;;;;;4966102;28;20081;-64
2023/12/14 05:03:54;;;;;;;11.68;7.40;;;5.80;99.90;;;;;;4965441;28;20039;-62
2023/12/14 05:06:20;;;;;;;13.93;7.00;;;5.80;99.90;;;;;;4970296;28;20472;-61
2023/12/14 05:08:46;;;;;;;11.52;7.32;;;5.80;99.90;;;;;;4967046;28;20054;-62
2023/12/14 05:11:13;;;;;;;12.85;7.45;;;5.70;99.90;;;;;;4973402;28;20117;-62
2023/12/14 05:13:39;;;;;;;13.25;7.82;;;5.80;99.90;;;;;;4970687;28;20082;-61
2023/12/14 05:16:04;;;;;;;12.57;7.35;;;5.70;99.90;;;;;;4967437;28;20066;-61
2023/12/14 05:18:30;;;;;;;14.30;7.95;;;5.70;99.90;;;;;;4970056;28;20102;-62
2023/12/14 05:20:56;;;;;;;14.68;8.05;;;5.80;99.90;;;;;;4970499;28;20547;-64
2023/12/14 05:23:21;;;;;;;15.30;8.13;;;5.70;99.90;;;;;;4967967;28;20046;-61
2023/12/14 05:25:47;;;;;;;13.48;8.00;;;5.40;99.90;;;;;;4967668;28;20514;-61
2023/12/14 05:28:13;;;;;;;13.43;8.18;;;5.70;99.90;;;;;;4974157;28;20054;-62
2023/12/14 05:30:38;;;;;;;15.43;8.23;;;5.70;99.90;;;;;;4973399;28;20408;-63
2023/12/14 05:33:04;;;;;;;15.60;7.93;;;5.70;99.90;;;;;;4972018;28;20050;-62
2023/12/14 05:35:30;;;;;;;14.75;8.45;;;5.70;99.90;;;;;;4967630;28;20074;-61
2023/12/14 05:37:56;;;;;;;17.30;8.35;;;5.70;99.90;;;;;;4968321;28;20042;-62
2023/12/14 05:40:21;;;;;;;15.65;8.07;;;5.80;99.90;;;;;;4970296;28;20101;-61
2023/12/14 05:42:47;;;;;;;15.00;7.53;;;5.70;99.90;;;;;;4967706;28;20050;-63
2023/12/14 05:45:13;;;;;;;14.23;8.00;;;5.70;99.90;;;;;;4964983;28;20095;-63
2023/12/14 05:47:39;;;;;;;14.65;8.15;;;5.70;99.90;;;;;;4972355;28;20035;-62
2023/12/14 05:50:05;;;;;;;13.10;8.02;;;5.70;99.90;;;;;;4967262;28;20051;-64
2023/12/14 05:52:31;;;;;;;16.63;8.13;;;5.70;99.90;;;;;;4972206;28;20038;-64
2023/12/14 05:54:56;;;;;;;14.55;8.75;;;5.80;99.90;;;;;;4973227;28;20050;-62
2023/12/14 05:57:22;;;;;;;15.15;8.48;;;5.80;99.90;;;;;;4971461;28;20039;-62
2023/12/14 05:59:49;;;;;;;15.15;8.30;;;5.70;99.90;;;;;;4968940;28;20492;-62
2023/12/14 06:02:15;;;;;;;12.35;7.85;;;5.70;99.90;;;;;;4968983;28;20053;-63
2023/12/14 06:04:40;;;;;;;18.00;8.95;;;5.70;99.90;;;;;;4973101;28;20039;-61
2023/12/14 06:07:06;;;;;;;16.13;8.38;;;5.80;99.90;;;;;;4967404;28;20070;-63
2023/12/14 06:09:34;;;;;;;14.88;8.75;;;5.80;99.90;;;;;;4970160;28;20484;-62
2023/12/14 06:12:04;;;;;;;14.40;8.55;;;5.70;99.90;;;;;;4971889;28;20047;-62
2023/12/14 06:14:30;;;;;;;13.90;7.78;;;5.70;99.90;;;;;;4969424;28;20483;-62
2023/12/14 06:16:56;;;;;;;14.25;8.23;;;5.70;99.90;;;;;;4971977;28;20070;-62
2023/12/14 06:19:22;;;;;;;15.52;8.02;;;5.70;99.90;;;;;;4964461;28;20086;-63
2023/12/14 06:21:48;;;;;;;17.40;8.10;;;5.70;99.90;;;;;;4970377;28;20039;-64
2023/12/14 06:24:14;;;;;;;15.43;8.27;;;5.70;99.90;;;;;;4970185;28;20467;-62
2023/12/14 06:26:46;;;;;;;14.65;7.85;;;5.70;99.90;;;;;;4968463;28;20066;-61
2023/12/14 06:29:12;;;;;;;15.68;8.27;;;5.70;99.90;;;;;;4965597;28;20534;-62
2023/12/14 06:31:38;;;;;;;16.30;8.98;;;5.70;99.90;;;;;;4966733;28;20117;-62
2023/12/14 06:34:05;;;;;;;15.13;8.07;;;5.70;99.90;;;;;;4964196;28;20517;-64
2023/12/14 06:36:31;;;;;;;13.88;9.02;;;5.70;99.90;;;;;;4960893;28;20035;-63
2023/12/14 06:38:58;;;;;;;15.10;8.40;;;5.70;99.90;;;;;;4971399;28;20518;-63
2023/12/14 06:41:25;;;;;;;16.83;8.77;;;5.70;99.90;;;;;;4964789;28;20094;-62
2023/12/14 06:43:50;;;;;;;15.90;9.02;;;5.70;99.90;;;;;;4966146;28;20091;-64
2023/12/14 06:46:16;;;;;;;15.50;8.68;;;5.70;99.90;;;;;;4972207;28;20062;-62
2023/12/14 06:48:42;;;;;;;16.17;8.75;;;5.70;99.90;;;;;;4973258;28;20105;-62
2023/12/14 06:51:08;;;;;;;14.55;9.57;;;5.70;99.90;;;;;;5005008;23;20041;-74
2023/12/14 06:53:35;;;;;;;19.85;9.13;;;5.70;99.90;;;;;;5011475;28;20403;-75
2023/12/14 06:56:00;;;;;;;17.67;8.63;;;5.70;99.90;;;;;;5014458;28;20436;-74
2023/12/14 06:58:26;;;;;;;17.00;9.15;;;5.70;99.90;;;;;;5014868;28;20107;-74
2023/12/14 07:00:52;;;;;;;14.73;9.02;;;5.70;99.90;;;;;;5013928;28;20419;-75
2023/12/14 07:03:17;;;;;;;15.38;8.93;;;5.70;99.90;;;;;;5002698;28;20413;-75
2023/12/14 07:05:43;;;;;;;16.13;9.07;;;5.70;99.90;;;;;;5014574;28;20511;-75
2023/12/14 07:08:08;;;;;;;15.43;8.90;;;5.70;99.90;;;;;;5014247;28;20416;-75
2023/12/14 07:10:34;;;;;;;16.88;9.02;;;5.70;99.90;;;;;;5032217;28;20125;-74
2023/12/14 07:12:59;;;;;;;18.13;8.85;;;5.60;99.90;;;;;;5027065;28;20057;-74
2023/12/14 07:15:25;;;;;;;17.20;8.73;;;5.70;99.90;;;;;;4994384;28;20041;-74
2023/12/14 07:17:51;;;;;;;16.52;8.98;;;5.70;99.90;;;;;;5008545;28;20041;-74
2023/12/14 07:20:16;;;;;;;20.83;12.63;;;5.70;99.90;;;;;;5013587;28;20041;-73
2023/12/14 07:22:42;;;;;;;21.58;10.43;;;5.60;99.90;;;;;;5030199;28;20147;-74
2023/12/14 07:25:08;;;;;;;16.60;9.30;;;5.70;99.90;;;;;;5012054;28;20030;-74
2023/12/14 07:27:34;;;;;;;16.27;9.23;;;5.70;99.90;;;;;;5006233;28;20037;-73
2023/12/14 07:29:59;;;;;;;15.90;8.88;;;5.60;99.90;;;;;;5010439;28;20065;-75
2023/12/14 07:32:25;;;;;;;13.80;9.30;;;5.60;99.90;;;;;;5002625;28;20041;-75
2023/12/14 07:34:50;;;;;;;20.20;12.50;;;5.60;99.90;;;;;;5011465;28;20052;-75
2023/12/14 07:37:16;;;;;;;17.52;10.88;;;5.60;99.90;;;;;;5027288;28;20116;-74
2023/12/14 07:39:41;;;;;;;20.75;12.82;;;5.60;99.90;;;;;;5017839;28;20047;-76
2023/12/14 07:42:07;;;;;;;25.98;15.63;;;5.60;99.90;;;;;;5013767;28;20043;-74
2023/12/14 07:44:33;;;;;;;23.13;13.73;;;5.60;99.90;;;;;;5015143;28;20045;-75
2023/12/14 07:47:02;;;;;;;20.42;13.32;;;5.60;99.90;;;;;;5004461;28;20073;-75
2023/12/14 07:49:28;;;;;;;20.83;14.80;;;5.70;99.90;;;;;;5008408;28;20076;-75
2023/12/14 07:51:53;;;;;;;17.38;12.07;;;5.70;99.90;;;;;;5001024;28;20492;-75
2023/12/14 07:54:19;;;;;;;18.88;11.52;;;5.70;99.90;;;;;;5011710;28;20144;-74
2023/12/14 07:56:45;;;;;;;14.93;9.75;;;5.70;99.90;;;;;;5014345;28;20049;-75
2023/12/14 07:59:11;;;;;;;19.48;10.38;;;5.70;99.90;;;;;;5028123;28;20071;-75
2023/12/14 08:01:37;;;;;;;18.48;10.55;;;5.70;99.90;;;;;;5011365;28;20045;-75
2023/12/14 08:04:03;;;;;;;19.83;10.63;;;5.60;99.90;;;;;;5016681;28;20048;-75
2023/12/14 08:06:29;;;;;;;16.05;9.52;;;5.60;99.90;;;;;;5005134;28;20083;-74
2023/12/14 08:08:57;;;;;;;17.88;11.30;;;5.70;99.90;;;;;;5010605;28;20124;-74
2023/12/14 08:11:24;;;;;;;20.52;11.15;;;5.60;99.90;;;;;;5007795;28;20077;-74
2023/12/14 08:13:49;;;;;;;19.63;12.10;;;5.60;99.90;;;;;;5012403;28;20054;-74
2023/12/14 08:16:17;;;;;;;17.25;10.73;;;5.60;99.90;;;;;;5009035;28;20096;-78
2023/12/14 08:18:45;;;;;;;19.67;10.23;;;5.70;99.90;;;;;;5005995;28;20476;-75
2023/12/14 08:21:11;;;;;;;18.30;10.00;;;5.70;99.90;;;;;;5026854;28;20072;-74
2023/12/14 08:23:37;;;;;;;24.63;15.40;;;5.60;99.90;;;;;;5009784;28;20075;-75
2023/12/14 08:26:02;;;;;;;26.95;17.35;;;5.70;99.90;;;;;;5011051;28;20037;-74
2023/12/14 08:28:28;;;;;;;22.98;13.63;;;5.60;99.90;;;;;;5009933;28;20083;-74
2023/12/14 08:30:54;;;;;;;24.60;14.07;;;5.70;99.90;;;;;;5009581;28;20132;-74
2023/12/14 08:33:19;;;;;;;22.80;13.10;;;5.70;99.90;;;;;;5010668;28;20060;-74
2023/12/14 08:35:45;;;;;;;16.92;11.10;;;5.70;99.90;;;;;;5006496;28;20065;-74
2023/12/14 08:38:11;;;;;;;22.45;12.30;;;6.20;99.90;;;;;;5006553;28;20041;-74
2023/12/14 08:40:37;;;;;;;22.33;12.40;;;5.70;99.90;;;;;;5028395;28;20135;-75
2023/12/14 08:43:03;;;;;;;20.33;13.98;;;5.70;99.90;;;;;;5006157;28;20045;-75
2023/12/14 08:45:29;;;;;;;17.27;11.18;;;5.70;99.90;;;;;;5010296;28;20045;-74
2023/12/14 08:47:54;;;;;;;19.02;11.73;;;5.70;99.90;;;;;;5009721;28;20407;-75
2023/12/14 08:50:20;;;;;;;19.50;11.05;;;5.70;99.90;;;;;;5009870;28;20045;-74
2023/12/14 08:52:48;;;;;;;17.40;9.88;;;5.70;99.90;;;;;;5010756;28;20124;-74
2023/12/14 08:55:14;;;;;;;17.55;11.35;;;5.60;99.90;;;;;;5003251;28;20045;-75
2023/12/14 08:57:39;;;;;;;17.30;9.82;;;5.70;99.90;;;;;;5005904;28;20111;-75
2023/12/14 09:00:06;;;;;;;16.48;10.00;;;5.70;99.90;;;;;;5007079;28;20037;-74
2023/12/14 09:02:32;;;;;;;19.00;10.57;;;5.70;99.90;;;;;;5028391;28;20109;-75
2023/12/14 09:04:58;;;;;;;17.23;10.20;;;5.70;99.90;;;;;;5010717;28;20476;-74
2023/12/14 09:07:24;;;;;;;20.42;10.63;;;5.70;99.90;;;;;;5028437;28;20069;-74
2023/12/14 09:09:49;;;;;;;15.63;9.93;;;5.70;99.90;;;;;;5027560;28;20052;-74
2023/12/14 09:12:15;;;;;;;18.23;10.18;;;5.70;99.90;;;;;;5011193;28;20042;-74
2023/12/14 09:14:41;;;;;;;16.85;12.13;;;5.70;99.90;;;;;;5010806;28;20049;-73
2023/12/14 09:17:06;;;;;;;27.65;21.45;;;5.70;99.90;;;;;;5011218;28;20522;-74
2023/12/14 09:19:32;;;;;;;32.70;25.15;;;5.70;99.90;;;;;;5006465;28;20121;-75
2023/12/14 09:21:58;;;;;;;22.65;14.82;;;5.80;99.90;;;;;;5004927;28;20096;-75
2023/12/14 09:24:24;;;;;;;20.15;11.40;;;5.80;99.90;;;;;;5010463;28;20484;-74
2023/12/14 09:26:49;;;;;;;15.80;9.93;;;5.80;99.90;;;;;;5020019;28;20751;-74
2023/12/14 09:29:16;;;;;;;15.85;9.68;;;5.80;99.90;;;;;;4998104;28;20046;-74
2023/12/14 09:31:42;;;;;;;15.63;9.43;;;5.80;99.90;;;;;;5007516;28;20416;-73
2023/12/14 09:34:09;;;;;;;17.50;9.27;;;5.80;99.90;;;;;;5009728;28;20443;-74
2023/12/14 09:36:35;;;;;;;21.80;14.95;;;5.80;99.90;;;;;;5004244;28;20068;-74
2023/12/14 09:39:00;;;;;;;25.27;16.05;;;5.80;99.90;;;;;;5002312;28;20396;-74
2023/12/14 09:41:26;;;;;;;16.05;10.75;;;5.80;99.90;;;;;;5007277;28;20053;-74
2023/12/14 09:43:52;;;;;;;15.07;9.40;;;5.90;99.90;;;;;;5006648;28;20111;-74
2023/12/14 09:46:18;;;;;;;19.38;10.63;;;5.80;99.90;;;;;;5009989;28;20041;-75
2023/12/14 09:48:45;;;;;;;19.25;11.90;;;5.80;99.90;;;;;;5010886;28;20061;-74
2023/12/14 09:51:12;;;;;;;24.73;15.52;;;5.80;99.90;;;;;;5004150;28;20041;-74
2023/12/14 09:53:37;;;;;;;25.48;16.30;;;5.80;99.90;;;;;;5012400;28;20042;-75
2023/12/14 09:56:04;;;;;;;27.27;19.40;;;5.80;99.90;;;;;;5013160;28;20648;-75
2023/12/14 09:58:33;;;;;;;29.77;20.27;;;5.90;99.90;;;;;;5013246;28;20138;-76
2023/12/14 10:01:00;;;;;;;22.52;14.45;;;5.90;99.90;;;;;;5007829;28;20535;-75
2023/12/14 10:03:28;;;;;;;17.83;11.57;;;5.90;99.90;;;;;;5011280;28;20515;-75
2023/12/14 10:05:55;;;;;;;19.83;11.23;;;5.90;99.90;;;;;;5013812;28;20049;-75
2023/12/14 10:08:21;;;;;;;17.85;11.23;;;5.90;99.90;;;;;;5008373;28;20041;-75
2023/12/14 10:10:49;;;;;;;19.67;10.43;;;5.90;99.90;;;;;;5013714;28;20046;-75
2023/12/14 10:13:15;;;;;;;18.33;11.43;;;6.00;99.90;;;;;;5012053;28;20039;-75
2023/12/14 10:15:46;;;;;;;18.17;10.80;;;6.00;99.90;;;;;;5015015;28;21638;-76
2023/12/14 10:18:12;;;;;;;19.00;10.88;;;6.00;99.90;;;;;;5010660;28;20042;-76
2023/12/14 10:20:38;;;;;;;21.77;14.23;;;6.00;99.90;;;;;;5010437;28;20073;-75
2023/12/14 10:23:06;;;;;;;25.40;21.65;;;6.10;99.90;;;;;;5013349;28;20041;-75
2023/12/14 10:25:32;;;;;;;27.08;20.40;;;6.10;99.90;;;;;;5010952;28;20610;-76
2023/12/14 10:27:59;;;;;;;20.95;13.63;;;6.10;99.90;;;;;;5008020;28;20045;-75
2023/12/14 10:30:25;;;;;;;19.23;11.73;;;6.10;99.90;;;;;;5013067;28;20041;-75
2023/12/14 10:32:51;;;;;;;15.90;9.20;;;6.20;99.90;;;;;;5010060;28;20540;-74
2023/12/14 10:35:17;;;;;;;17.65;10.27;;;6.10;99.90;;;;;;5008528;28;20048;-76
2023/12/14 10:37:43;;;;;;;17.60;9.70;;;6.10;99.90;;;;;;5019313;28;20069;-76
2023/12/14 10:40:13;;;;;;;17.65;8.95;;;6.10;99.90;;;;;;5003678;28;20092;-77
2023/12/14 10:42:41;;;;;;;19.38;9.13;;;6.20;99.90;;;;;;5005640;28;21293;-76
2023/12/14 10:45:08;;;;;;;15.52;9.77;;;6.20;99.90;;;;;;5012827;28;20056;-76
2023/12/14 10:47:34;;;;;;;17.17;9.68;;;6.20;99.90;;;;;;5001602;28;20050;-76
2023/12/14 10:50:01;;;;;;;15.20;9.30;;;6.10;99.90;;;;;;5012473;28;20045;-77
2023/12/14 10:52:28;;;;;;;15.95;9.27;;;6.10;99.90;;;;;;5012876;28;20048;-76
2023/12/14 10:54:59;;;;;;;16.85;10.05;;;6.10;99.90;;;;;;5003820;28;20065;-76
2023/12/14 10:57:25;;;;;;;16.10;9.10;;;6.10;99.90;;;;;;5026643;28;20042;-76
2023/12/14 10:59:59;;;;;;;14.90;9.25;;;6.10;99.90;;;;;;5017731;28;20044;-76
2023/12/14 11:02:24;;;;;;;22.13;9.90;;;6.20;99.90;;;;;;5022682;28;20064;-75
2023/12/14 11:05:09;;;;;;;16.38;8.90;;;6.20;99.90;;;;;;5020033;28;20507;-75
2023/12/14 11:07:46;;;;;;;17.60;9.52;;;6.20;99.90;;;;;;5009043;28;20103;-77
2023/12/14 11:10:12;;;;;;;17.30;9.95;;;6.20;99.90;;;;;;5001358;28;20046;-76
2023/12/14 11:12:49;;;;;;;16.80;8.98;;;6.30;99.90;;;;;;5009775;28;20044;-74
2023/12/14 11:15:18;;;;;;;19.33;8.82;;;6.30;99.90;;;;;;5025610;28;20046;-75
2023/12/14 11:18:03;;;;;;;17.90;8.95;;;6.30;99.90;;;;;;5025635;28;20042;-75
2023/12/14 11:20:29;;;;;;;15.57;9.25;;;5.60;99.90;;;;;;5013868;28;20050;-74
2023/12/14 11:22:55;;;;;;;15.23;9.13;;;6.40;99.90;;;;;;5009848;28;20809;-75
2023/12/14 11:25:24;;;;;;;17.30;9.25;;;6.50;99.90;;;;;;5028872;28;20034;-74
2023/12/14 11:27:49;;;;;;;19.75;9.07;;;6.50;99.90;;;;;;5025707;28;20050;-75
2023/12/14 11:30:16;;;;;;;18.90;9.35;;;6.50;99.90;;;;;;5011149;28;20037;-74
2023/12/14 11:32:42;;;;;;;14.40;8.88;;;6.50;99.90;;;;;;5006011;28;20076;-75
2023/12/14 11:35:10;;;;;;;16.50;8.82;;;6.50;99.90;;;;;;4990264;28;20090;-76
2023/12/14 11:37:36;;;;;;;14.93;9.20;;;6.50;99.90;;;;;;4998268;28;20033;-75
2023/12/14 11:40:04;;;;;;;18.15;10.02;;;6.50;99.90;;;;;;5001912;28;20041;-76
2023/12/14 11:42:31;;;;;;;17.90;9.57;;;6.60;99.90;;;;;;5006635;28;20049;-76
2023/12/14 11:44:57;;;;;;;14.38;8.38;;;6.60;99.90;;;;;;4997901;28;20050;-76
2023/12/14 11:47:23;;;;;;;17.02;9.30;;;6.60;99.90;;;;;;5009814;28;20044;-76
2023/12/14 11:49:48;;;;;;;15.23;8.00;;;6.60;99.90;;;;;;5005775;28;20553;-76
2023/12/14 11:52:14;;;;;;;16.02;9.00;;;6.70;99.90;;;;;;5003262;28;20073;-76
2023/12/14 11:54:39;;;;;;;15.75;8.70;;;6.70;99.90;;;;;;5001777;28;20172;-76
2023/12/14 11:57:08;;;;;;;15.45;9.65;;;6.70;99.90;;;;;;5003094;28;20049;-76
2023/12/14 11:59:35;;;;;;;17.35;8.93;;;6.70;99.90;;;;;;5004477;28;20509;-76
2023/12/14 12:02:01;;;;;;;18.27;8.75;;;6.80;99.90;;;;;;4998230;28;20420;-76
2023/12/14 12:04:27;;;;;;;13.98;8.50;;;6.80;99.90;;;;;;5008330;28;20052;-76
2023/12/14 12:07:04;;;;;;;13.80;8.40;;;6.70;99.90;;;;;;5002548;28;20052;-76
2023/12/14 12:09:40;;;;;;;15.82;9.10;;;6.70;99.90;;;;;;5001771;28;20049;-74
2023/12/14 12:12:10;;;;;;;15.30;8.77;;;6.60;99.90;;;;;;5001916;28;20045;-75
2023/12/14 12:14:37;;;;;;;14.07;8.77;;;6.60;99.90;;;;;;4996027;28;20045;-76
2023/12/14 12:17:05;;;;;;;16.38;9.68;;;6.60;99.90;;;;;;5002480;28;20041;-77
2023/12/14 12:19:33;;;;;;;16.55;9.32;;;6.60;99.90;;;;;;5003793;28;20155;-76
2023/12/14 12:21:58;;;;;;;16.80;9.55;;;6.60;99.90;;;;;;5006084;28;20077;-75
2023/12/14 12:24:24;;;;;;;17.27;8.98;;;6.60;99.90;;;;;;5003677;28;20076;-77
2023/12/14 12:26:49;;;;;;;16.20;9.75;;;6.60;99.90;;;;;;5006423;28;20067;-78
2023/12/14 12:29:15;;;;;;;17.75;9.15;;;6.60;99.90;;;;;;5003644;28;20045;-77
2023/12/14 12:31:42;;;;;;;17.25;9.20;;;6.60;99.90;;;;;;5004593;28;20045;-77
2023/12/14 12:34:08;;;;;;;16.50;9.30;;;6.60;99.90;;;;;;5011565;28;20046;-77
2023/12/14 12:36:34;;;;;;;16.60;9.25;;;6.50;99.90;;;;;;5021034;28;20038;-77
2023/12/14 12:38:59;;;;;;;15.73;9.35;;;6.60;99.90;;;;;;5002987;28;20141;-77
2023/12/14 12:41:25;;;;;;;16.38;9.13;;;6.50;99.90;;;;;;5003031;28;20045;-76